Time,TemperatureF,DewpointF,PressureIn,WindDirection,WindDirectionDegrees,WindSpeedMPH,WindSpeedGustMPH,Humidity,HourlyPrecipIn,Conditions,Clouds,dailyrainin,SoftwareType,DateUTC
2013-02-07 00:00:00,26.1,9.1,29.98,SE,134,0.0,0.0,48,0.00,,SKC,0.00,VWS V14.01,2013-02-07 08:00:00,
2013-02-07 00:05:00,25.9,8.9,29.98,SE,135,0.0,0.0,48,0.00,,SKC,0.00,VWS V14.01,2013-02-07 08:05:00,
2013-02-07 00:10:00,25.9,8.4,29.98,SE,135,0.0,0.0,47,0.00,,SKC,0.00,VWS V14.01,2013-02-07 08:10:00,
2013-02-07 00:15:00,34.2,6.0,29.98,SSE,166,13.6,13.6,30,0.00,,SKC,0.00,VWS V14.01,2013-02-07 08:15:00,
2013-02-07 00:20:00,42.4,5.3,29.98,SE,135,11.0,11.0,21,0.00,,SKC,0.00,VWS V14.01,2013-02-07 08:20:00,
2013-02-07 00:25:00,44.6,6.0,29.98,SSE,164,12.8,12.8,20,0.00,,SKC,0.00,VWS V14.01,2013-02-07 08:25:00,
2013-02-07 00:30:00,45.5,6.8,29.98,SE,144,11.0,15.0,20,0.00,,SKC,0.00,VWS V14.01,2013-02-07 08:30:00,
2013-02-07 00:35:00,45.3,6.6,29.98,South,174,11.0,12.8,20,0.00,,SKC,0.00,VWS V14.01,2013-02-07 08:35:00,
2013-02-07 00:40:00,45.5,6.8,29.98,SE,136,12.3,12.3,20,0.00,,SKC,0.00,VWS V14.01,2013-02-07 08:40:00,
2013-02-07 00:45:00,46.0,7.2,29.98,SSE,156,16.8,16.8,20,0.00,,SKC,0.00,VWS V14.01,2013-02-07 08:45:00,
2013-02-07 00:50:00,45.3,6.6,29.98,SSE,165,10.5,10.5,20,0.00,,SKC,0.00,VWS V14.01,2013-02-07 08:50:00,
2013-02-07 00:55:00,45.1,6.5,29.98,SE,146,15.4,15.4,20,0.00,,SKC,0.00,VWS V14.01,2013-02-07 08:55:00,
2013-02-07 01:00:00,44.8,6.2,29.98,SSE,163,15.4,17.4,20,0.00,,SKC,0.00,VWS V14.01,2013-02-07 09:00:00,
2013-02-07 01:05:00,44.6,6.0,29.95,South,174,11.9,11.9,20,0.00,,SKC,0.00,VWS V14.01,2013-02-07 09:05:00,
2013-02-07 01:10:00,44.6,6.0,29.95,SSE,160,16.3,16.3,20,0.00,,SKC,0.00,VWS V14.01,2013-02-07 09:10:00,
2013-02-07 01:15:00,44.6,6.0,29.95,ESE,120,13.2,13.2,20,0.00,,SKC,0.00,VWS V14.01,2013-02-07 09:15:00,
2013-02-07 01:20:00,44.6,6.0,29.95,SSE,156,12.3,15.0,20,0.00,,SKC,0.00,VWS V14.01,2013-02-07 09:20:00,
2013-02-07 01:25:00,44.1,5.6,29.95,SSE,153,11.0,11.0,20,0.00,,SKC,0.00,VWS V14.01,2013-02-07 09:25:00,
2013-02-07 01:30:00,44.2,5.7,29.95,SSE,158,12.8,20.6,20,0.00,,SKC,0.00,VWS V14.01,2013-02-07 09:30:00,
2013-02-07 01:35:00,44.1,5.6,29.95,SSE,150,16.3,16.3,20,0.00,,SKC,0.00,VWS V14.01,2013-02-07 09:35:00,
2013-02-07 01:40:00,44.1,5.6,29.95,SSE,151,10.1,12.8,20,0.00,,SKC,0.00,VWS V14.01,2013-02-07 09:40:00,
2013-02-07 01:45:00,44.1,5.6,29.95,SSE,149,19.7,19.7,20,0.00,,SKC,0.00,VWS V14.01,2013-02-07 09:45:00,
2013-02-07 01:50:00,44.1,5.6,29.95,ESE,108,16.8,17.4,20,0.00,,SKC,0.00,VWS V14.01,2013-02-07 09:50:00,
2013-02-07 01:55:00,44.2,5.7,29.95,SSE,158,11.0,15.0,20,0.00,,SKC,0.00,VWS V14.01,2013-02-07 09:55:00,
2013-02-07 02:00:00,44.4,5.9,29.95,South,170,15.0,15.0,20,0.00,,SKC,0.00,VWS V14.01,2013-02-07 10:00:00,
2013-02-07 02:05:00,44.2,5.7,29.95,SE,136,15.4,15.4,20,0.00,,SKC,0.00,VWS V14.01,2013-02-07 10:05:00,
2013-02-07 02:10:00,44.1,5.6,29.95,SE,128,14.5,14.5,20,0.00,,SKC,0.00,VWS V14.01,2013-02-07 10:10:00,
2013-02-07 02:15:00,43.9,5.4,29.95,SE,126,17.0,17.0,20,0.00,,SKC,0.00,VWS V14.01,2013-02-07 10:15:00,
2013-02-07 02:20:00,44.1,5.6,29.95,SSE,155,16.3,18.3,20,0.00,,SKC,0.00,VWS V14.01,2013-02-07 10:20:00,
2013-02-07 02:25:00,44.6,6.0,29.95,SSE,160,15.4,15.4,20,0.00,,SKC,0.00,VWS V14.01,2013-02-07 10:25:00,
2013-02-07 02:30:00,44.2,5.7,29.95,SE,137,12.8,15.4,20,0.00,,SKC,0.00,VWS V14.01,2013-02-07 10:30:00,
2013-02-07 02:35:00,43.9,5.4,29.95,SE,128,11.4,15.0,20,0.00,,SKC,0.00,VWS V14.01,2013-02-07 10:35:00,
2013-02-07 02:40:00,43.5,5.1,29.95,SE,141,14.5,16.8,20,0.00,,SKC,0.00,VWS V14.01,2013-02-07 10:40:00,
2013-02-07 02:45:00,43.3,5.0,29.95,SE,145,13.2,13.2,20,0.00,,SKC,0.00,VWS V14.01,2013-02-07 10:45:00,
2013-02-07 02:50:00,43.2,4.8,29.92,ESE,115,11.9,15.0,20,0.00,,SKC,0.00,VWS V14.01,2013-02-07 10:50:00,
2013-02-07 02:55:00,43.0,4.7,29.92,SE,146,13.2,15.4,20,0.00,,SKC,0.00,VWS V14.01,2013-02-07 10:55:00,
2013-02-07 03:00:00,43.0,4.7,29.92,SE,142,13.2,17.9,20,0.00,,SKC,0.00,VWS V14.01,2013-02-07 11:00:00,
2013-02-07 03:05:00,43.0,4.7,29.92,SE,143,13.2,17.0,20,0.00,,SKC,0.00,VWS V14.01,2013-02-07 11:05:00,
2013-02-07 03:10:00,43.0,4.7,29.92,SE,139,13.2,13.2,20,0.00,,SKC,0.00,VWS V14.01,2013-02-07 11:10:00,
2013-02-07 03:15:00,42.6,5.4,29.92,SE,137,12.8,12.8,21,0.00,,SKC,0.00,VWS V14.01,2013-02-07 11:15:00,
2013-02-07 03:20:00,42.1,5.0,29.92,ESE,116,12.3,15.9,21,0.00,,SKC,0.00,VWS V14.01,2013-02-07 11:20:00,
2013-02-07 03:25:00,41.9,4.8,29.92,SE,128,8.3,11.0,21,0.00,,SKC,0.00,VWS V14.01,2013-02-07 11:25:00,
2013-02-07 03:30:00,42.1,5.0,29.92,SSE,147,11.9,11.9,21,0.00,,SKC,0.00,VWS V14.01,2013-02-07 11:30:00,
2013-02-07 03:35:00,42.3,5.1,29.92,SE,134,8.7,13.2,21,0.00,,SKC,0.00,VWS V14.01,2013-02-07 11:35:00,
2013-02-07 03:40:00,41.7,4.7,29.92,ESE,123,11.0,17.4,21,0.00,,SKC,0.00,VWS V14.01,2013-02-07 11:40:00,
2013-02-07 03:45:00,41.9,4.8,29.92,SSE,156,15.4,15.4,21,0.00,,SKC,0.00,VWS V14.01,2013-02-07 11:45:00,
2013-02-07 03:50:00,42.3,5.1,29.92,ESE,121,12.8,15.4,21,0.00,,SKC,0.00,VWS V14.01,2013-02-07 11:50:00,
2013-02-07 03:55:00,42.3,5.1,29.92,ESE,119,15.0,17.9,21,0.00,,SKC,0.00,VWS V14.01,2013-02-07 11:55:00,
2013-02-07 04:00:00,42.4,5.3,29.92,SE,132,17.4,17.4,21,0.00,,SKC,0.00,VWS V14.01,2013-02-07 12:00:00,
2013-02-07 04:05:00,42.6,5.4,29.92,SE,128,10.5,13.6,21,0.00,,SKC,0.00,VWS V14.01,2013-02-07 12:05:00,
2013-02-07 04:10:00,43.0,4.7,29.92,SE,135,12.8,17.4,20,0.00,,SKC,0.00,VWS V14.01,2013-02-07 12:10:00,
2013-02-07 04:15:00,42.6,5.4,29.92,SSE,152,10.5,15.0,21,0.00,,SKC,0.00,VWS V14.01,2013-02-07 12:15:00,
2013-02-07 04:20:00,42.4,5.3,29.89,ESE,120,12.8,15.0,21,0.00,,SKC,0.00,VWS V14.01,2013-02-07 12:20:00,
2013-02-07 04:25:00,42.3,5.1,29.89,SE,135,11.0,12.3,21,0.00,,SKC,0.00,VWS V14.01,2013-02-07 12:25:00,
2013-02-07 04:30:00,42.1,5.0,29.89,SSE,151,10.1,15.4,21,0.00,,SKC,0.00,VWS V14.01,2013-02-07 12:30:00,
2013-02-07 04:35:00,42.3,5.1,29.89,SE,145,11.0,15.4,21,0.00,,SKC,0.00,VWS V14.01,2013-02-07 12:35:00,
2013-02-07 04:40:00,42.3,5.1,29.89,SE,138,11.9,19.7,21,0.00,,SKC,0.00,VWS V14.01,2013-02-07 12:40:00,
2013-02-07 04:45:00,42.4,5.3,29.89,SE,131,15.9,15.9,21,0.00,,SKC,0.00,VWS V14.01,2013-02-07 12:45:00,
2013-02-07 04:50:00,42.3,5.1,29.89,SSE,156,17.4,19.7,21,0.00,,SKC,0.00,VWS V14.01,2013-02-07 12:50:00,
2013-02-07 04:55:00,42.1,5.0,29.89,SE,143,18.3,18.3,21,0.00,,SKC,0.00,VWS V14.01,2013-02-07 12:55:00,
2013-02-07 05:00:00,42.3,5.1,29.89,SE,131,12.3,15.9,21,0.00,,SKC,0.00,VWS V14.01,2013-02-07 13:00:00,
2013-02-07 05:05:00,42.1,5.0,29.89,SSE,147,14.1,15.4,21,0.00,,SKC,0.00,VWS V14.01,2013-02-07 13:05:00,
2013-02-07 05:10:00,41.9,4.8,29.89,SE,135,12.3,17.4,21,0.00,,SKC,0.00,VWS V14.01,2013-02-07 13:10:00,
2013-02-07 05:15:00,42.1,5.0,29.89,SE,137,13.2,17.0,21,0.00,,SKC,0.00,VWS V14.01,2013-02-07 13:15:00,
2013-02-07 05:20:00,42.1,5.0,29.86,SE,134,10.5,14.1,21,0.00,,SKC,0.00,VWS V14.01,2013-02-07 13:20:00,
2013-02-07 05:25:00,41.7,4.7,29.86,SE,129,10.5,14.5,21,0.00,,SKC,0.00,VWS V14.01,2013-02-07 13:25:00,
2013-02-07 05:30:00,41.7,4.7,29.86,ESE,123,11.0,16.3,21,0.00,,SKC,0.00,VWS V14.01,2013-02-07 13:30:00,
2013-02-07 05:35:00,41.5,4.5,29.89,SE,129,12.8,13.2,21,0.00,,SKC,0.00,VWS V14.01,2013-02-07 13:35:00,
2013-02-07 05:40:00,41.7,4.7,29.89,SE,146,13.2,13.2,21,0.00,,SKC,0.00,VWS V14.01,2013-02-07 13:40:00,
2013-02-07 05:45:00,41.0,4.1,29.89,SE,145,8.1,11.9,21,0.00,,SKC,0.00,VWS V14.01,2013-02-07 13:45:00,
2013-02-07 05:50:00,41.2,4.2,29.89,SE,129,16.8,20.1,21,0.00,,SKC,0.00,VWS V14.01,2013-02-07 13:50:00,
2013-02-07 05:55:00,41.5,4.5,29.89,SE,143,15.4,15.4,21,0.00,,SKC,0.00,VWS V14.01,2013-02-07 13:55:00,
2013-02-07 06:00:00,41.7,4.7,29.89,SE,129,10.5,15.0,21,0.00,,SKC,0.00,VWS V14.01,2013-02-07 14:00:00,
2013-02-07 06:05:00,41.2,4.2,29.89,SE,129,8.3,11.0,21,0.00,,SKC,0.00,VWS V14.01,2013-02-07 14:05:00,
2013-02-07 06:10:00,41.2,4.2,29.89,SE,125,12.8,15.0,21,0.00,,SKC,0.00,VWS V14.01,2013-02-07 14:10:00,
2013-02-07 06:15:00,41.0,4.1,29.89,SE,141,12.8,15.9,21,0.00,,SKC,0.00,VWS V14.01,2013-02-07 14:15:00,
2013-02-07 06:20:00,41.0,4.1,29.92,SE,126,10.5,12.8,21,0.00,,SKC,0.00,VWS V14.01,2013-02-07 14:20:00,
2013-02-07 06:25:00,41.0,4.1,29.92,SE,133,12.3,12.3,21,0.00,,SKC,0.00,VWS V14.01,2013-02-07 14:25:00,
2013-02-07 06:30:00,41.5,4.5,29.92,SE,146,11.0,11.0,21,0.00,,SKC,0.00,VWS V14.01,2013-02-07 14:30:00,
2013-02-07 06:35:00,41.9,4.8,29.92,SE,142,11.0,17.4,21,0.00,,SKC,0.00,VWS V14.01,2013-02-07 14:35:00,
2013-02-07 06:40:00,42.3,5.1,29.92,SSE,150,11.0,12.8,21,0.00,,SKC,0.00,VWS V14.01,2013-02-07 14:40:00,
2013-02-07 06:45:00,42.3,5.1,29.92,SE,135,11.4,11.4,21,0.00,,SKC,0.00,VWS V14.01,2013-02-07 14:45:00,
2013-02-07 06:50:00,42.3,5.1,29.92,ESE,119,17.4,17.4,21,0.00,,SKC,0.00,VWS V14.01,2013-02-07 14:50:00,
2013-02-07 06:55:00,42.3,5.1,29.92,SE,140,12.3,13.2,21,0.00,,SKC,0.00,VWS V14.01,2013-02-07 14:55:00,
2013-02-07 07:00:00,42.3,5.1,29.92,SSE,152,13.2,13.2,21,0.00,,SKC,0.00,VWS V14.01,2013-02-07 15:00:00,
2013-02-07 07:05:00,42.3,5.1,29.92,SSE,150,15.4,15.4,21,0.00,,SKC,0.00,VWS V14.01,2013-02-07 15:05:00,
2013-02-07 07:10:00,42.4,5.3,29.92,SSE,150,10.1,13.2,21,0.00,,SKC,0.00,VWS V14.01,2013-02-07 15:10:00,
2013-02-07 07:15:00,42.1,5.0,29.92,SE,135,11.0,11.0,21,0.00,,SKC,0.00,VWS V14.01,2013-02-07 15:15:00,
2013-02-07 07:20:00,42.3,5.1,29.92,SE,143,15.4,15.4,21,0.00,,SKC,0.00,VWS V14.01,2013-02-07 15:20:00,
2013-02-07 07:25:00,42.6,5.4,29.92,SSE,160,8.3,15.4,21,0.00,,SKC,0.00,VWS V14.01,2013-02-07 15:25:00,
2013-02-07 07:30:00,42.4,5.3,29.92,SSE,166,5.4,11.0,21,0.00,,SKC,0.00,VWS V14.01,2013-02-07 15:30:00,
2013-02-07 07:35:00,42.4,5.3,29.92,SSE,155,5.4,8.1,21,0.00,,SKC,0.00,VWS V14.01,2013-02-07 15:35:00,
2013-02-07 07:40:00,43.0,4.7,29.92,SSE,163,4.0,8.1,20,0.00,,SKC,0.00,VWS V14.01,2013-02-07 15:40:00,
2013-02-07 07:45:00,43.5,5.1,29.92,SSE,152,2.7,5.8,20,0.00,,SKC,0.00,VWS V14.01,2013-02-07 15:45:00,
2013-02-07 07:50:00,44.1,5.6,29.92,SE,146,4.9,8.1,20,0.00,,SKC,0.00,VWS V14.01,2013-02-07 15:50:00,
2013-02-07 07:55:00,45.0,6.3,29.92,SSW,202,0.0,4.0,20,0.00,,SKC,0.00,VWS V14.01,2013-02-07 15:55:00,
2013-02-07 08:00:00,45.9,7.1,29.92,SSE,149,2.7,5.4,20,0.00,,SKC,0.00,VWS V14.01,2013-02-07 16:00:00,
2013-02-07 08:05:00,46.6,6.5,29.92,SSE,168,3.6,3.6,19,0.00,,SKC,0.00,VWS V14.01,2013-02-07 16:05:00,
2013-02-07 08:10:00,47.7,7.4,29.92,WSW,242,3.6,9.2,19,0.00,,SKC,0.00,VWS V14.01,2013-02-07 16:10:00,
2013-02-07 08:15:00,48.4,8.0,29.92,SW,217,5.8,8.3,19,0.00,,SKC,0.00,VWS V14.01,2013-02-07 16:15:00,
2013-02-07 08:20:00,48.6,8.2,29.92,SE,145,11.0,15.0,19,0.00,,SKC,0.00,VWS V14.01,2013-02-07 16:20:00,
2013-02-07 08:25:00,48.4,8.0,29.92,SW,230,9.2,13.2,19,0.00,,SKC,0.00,VWS V14.01,2013-02-07 16:25:00,
2013-02-07 08:30:00,48.7,8.3,29.92,SSW,206,7.6,7.6,19,0.00,,SKC,0.00,VWS V14.01,2013-02-07 16:30:00,
2013-02-07 08:35:00,48.7,8.3,29.89,SSW,207,8.7,11.0,19,0.00,,SKC,0.00,VWS V14.01,2013-02-07 16:35:00,
2013-02-07 08:40:00,49.1,8.6,29.89,SW,220,17.9,17.9,19,0.00,,SKC,0.00,VWS V14.01,2013-02-07 16:40:00,
2013-02-07 08:45:00,49.1,8.6,29.89,SSW,194,15.0,21.0,19,0.00,,SKC,0.00,VWS V14.01,2013-02-07 16:45:00,
2013-02-07 08:50:00,48.9,8.5,29.89,SW,217,16.8,16.8,19,0.00,,SKC,0.00,VWS V14.01,2013-02-07 16:50:00,
2013-02-07 08:55:00,48.9,8.5,29.89,SSW,199,8.1,15.4,19,0.00,,SKC,0.00,VWS V14.01,2013-02-07 16:55:00,
2013-02-07 09:00:00,48.9,8.5,29.89,SW,220,5.8,15.4,19,0.00,,SKC,0.00,VWS V14.01,2013-02-07 17:00:00,
2013-02-07 09:05:00,49.5,8.9,29.89,SSW,192,19.7,19.7,19,0.00,,SKC,0.00,VWS V14.01,2013-02-07 17:05:00,
2013-02-07 09:10:00,49.1,8.6,29.89,SSW,195,19.7,25.1,19,0.00,,SKC,0.00,VWS V14.01,2013-02-07 17:10:00,
2013-02-07 09:15:00,49.5,8.9,29.89,SSW,210,14.5,21.9,19,0.00,,SKC,0.00,VWS V14.01,2013-02-07 17:15:00,
2013-02-07 09:20:00,49.5,8.9,29.89,South,180,21.0,21.0,19,0.00,,SKC,0.00,VWS V14.01,2013-02-07 17:20:00,
2013-02-07 09:25:00,48.9,8.5,29.89,South,170,12.3,22.8,19,0.00,,SKC,0.00,VWS V14.01,2013-02-07 17:25:00,
2013-02-07 09:30:00,49.6,9.1,29.89,South,191,5.8,8.1,19,0.00,,SKC,0.00,VWS V14.01,2013-02-07 17:30:00,
2013-02-07 09:35:00,49.6,9.1,29.89,SW,225,23.7,23.7,19,0.00,,SKC,0.00,VWS V14.01,2013-02-07 17:35:00,
2013-02-07 09:40:00,48.9,8.5,29.89,WSW,250,14.1,15.4,19,0.00,,SKC,0.00,VWS V14.01,2013-02-07 17:40:00,
2013-02-07 09:45:00,48.7,8.3,29.89,SSE,166,22.4,22.4,19,0.00,,SKC,0.00,VWS V14.01,2013-02-07 17:45:00,
2013-02-07 09:50:00,47.8,7.6,29.89,SSE,165,14.5,14.5,19,0.00,,SKC,0.00,VWS V14.01,2013-02-07 17:50:00,
2013-02-07 09:55:00,47.5,7.3,29.89,SW,223,10.1,22.4,19,0.00,,SKC,0.00,VWS V14.01,2013-02-07 17:55:00,
2013-02-07 10:00:00,46.8,6.7,29.89,South,185,19.2,19.2,19,0.00,,SKC,0.00,VWS V14.01,2013-02-07 18:00:00,
2013-02-07 10:05:00,46.8,6.7,29.89,SSW,204,17.4,17.9,19,0.00,,SKC,0.00,VWS V14.01,2013-02-07 18:05:00,
2013-02-07 10:10:00,46.6,6.5,29.89,South,175,17.4,22.4,19,0.00,,SKC,0.00,VWS V14.01,2013-02-07 18:10:00,
2013-02-07 10:15:00,46.4,6.4,29.89,SW,225,8.3,25.7,19,0.00,,SKC,0.00,VWS V14.01,2013-02-07 18:15:00,
2013-02-07 10:20:00,46.4,6.4,29.89,SSW,195,15.4,22.8,19,0.00,,SKC,0.00,VWS V14.01,2013-02-07 18:20:00,
2013-02-07 10:25:00,46.4,6.4,29.89,WSW,238,24.2,24.2,19,0.00,,SKC,0.00,VWS V14.01,2013-02-07 18:25:00,
2013-02-07 10:30:00,46.6,6.5,29.89,WSW,239,12.8,22.4,19,0.00,,SKC,0.00,VWS V14.01,2013-02-07 18:30:00,
2013-02-07 10:35:00,46.6,6.5,29.89,SSW,204,15.4,17.4,19,0.00,,SKC,0.00,VWS V14.01,2013-02-07 18:35:00,
2013-02-07 10:40:00,46.4,6.4,29.89,SSE,149,25.5,26.2,19,0.00,,SKC,0.00,VWS V14.01,2013-02-07 18:40:00,
2013-02-07 10:45:00,46.2,7.4,29.89,SW,222,20.6,20.6,20,0.00,,SKC,0.00,VWS V14.01,2013-02-07 18:45:00,
2013-02-07 10:50:00,46.2,7.4,29.92,SSE,168,16.3,20.6,20,0.00,,SKC,0.00,VWS V14.01,2013-02-07 18:50:00,
2013-02-07 10:55:00,45.9,7.1,29.92,South,178,19.7,22.8,20,0.00,,SKC,0.00,VWS V14.01,2013-02-07 18:55:00,
2013-02-07 11:00:00,45.5,6.8,29.92,SE,142,20.1,22.4,20,0.00,,SKC,0.00,VWS V14.01,2013-02-07 19:00:00,
2013-02-07 11:05:00,45.3,6.6,29.92,SW,223,20.1,24.6,20,0.00,,SKC,0.00,VWS V14.01,2013-02-07 19:05:00,
2013-02-07 11:10:00,45.0,6.3,29.92,South,185,22.4,22.4,20,0.00,,SKC,0.00,VWS V14.01,2013-02-07 19:10:00,
2013-02-07 11:15:00,44.6,6.0,29.92,South,190,13.6,22.4,20,0.00,,SKC,0.00,VWS V14.01,2013-02-07 19:15:00,
2013-02-07 11:20:00,44.8,6.2,29.92,SSE,148,13.2,22.8,20,0.00,,SKC,0.00,VWS V14.01,2013-02-07 19:20:00,
2013-02-07 11:25:00,44.8,6.2,29.92,South,184,19.2,19.2,20,0.00,,SKC,0.00,VWS V14.01,2013-02-07 19:25:00,
2013-02-07 11:30:00,45.0,6.3,29.92,South,189,17.4,17.4,20,0.00,,SKC,0.00,VWS V14.01,2013-02-07 19:30:00,
2013-02-07 11:35:00,44.6,6.0,29.89,South,178,17.4,26.2,20,0.00,,SKC,0.00,VWS V14.01,2013-02-07 19:35:00,
2013-02-07 11:40:00,44.6,6.0,29.89,South,189,13.2,15.4,20,0.00,,SKC,0.00,VWS V14.01,2013-02-07 19:40:00,
2013-02-07 11:45:00,45.0,6.3,29.89,SW,214,13.2,15.4,20,0.00,,SKC,0.00,VWS V14.01,2013-02-07 19:45:00,
2013-02-07 11:50:00,44.8,6.2,29.89,SSW,204,15.0,17.9,20,0.00,,SKC,0.00,VWS V14.01,2013-02-07 19:50:00,
2013-02-07 11:55:00,43.9,5.4,29.89,South,182,20.6,23.7,20,0.00,,SKC,0.00,VWS V14.01,2013-02-07 19:55:00,
2013-02-07 12:00:00,44.1,5.6,29.89,South,177,17.0,21.9,20,0.00,,SKC,0.00,VWS V14.01,2013-02-07 20:00:00,
2013-02-07 12:05:00,44.6,6.0,29.89,SW,227,15.4,19.2,20,0.00,,SKC,0.00,VWS V14.01,2013-02-07 20:05:00,
2013-02-07 12:10:00,43.5,5.1,29.89,SSE,158,22.4,23.7,20,0.00,,SKC,0.00,VWS V14.01,2013-02-07 20:10:00,
2013-02-07 12:15:00,42.4,5.3,29.89,South,169,15.0,28.9,21,0.00,,SKC,0.00,VWS V14.01,2013-02-07 20:15:00,
2013-02-07 12:20:00,42.3,5.1,29.89,South,190,15.4,27.5,21,0.00,,SKC,0.00,VWS V14.01,2013-02-07 20:20:00,
2013-02-07 12:24:00,42.4,5.3,29.89,SE,146,22.4,22.8,21,0.00,,SKC,0.00,VWS V14.01,2013-02-07 20:24:00,
2013-02-07 12:29:00,42.3,5.1,29.89,South,179,23.7,28.4,21,0.00,,SKC,0.00,VWS V14.01,2013-02-07 20:29:00,
2013-02-07 12:34:00,42.6,5.4,29.89,South,183,24.6,25.1,21,0.00,,SKC,0.00,VWS V14.01,2013-02-07 20:34:00,
2013-02-07 12:39:00,42.6,5.4,29.89,SSE,160,22.4,22.4,21,0.00,,SKC,0.00,VWS V14.01,2013-02-07 20:39:00,
2013-02-07 12:44:00,42.8,4.5,29.89,SSE,150,23.3,24.6,20,0.00,,SKC,0.00,VWS V14.01,2013-02-07 20:44:00,
2013-02-07 12:49:00,43.3,5.0,29.89,SW,219,13.2,25.7,20,0.00,,SKC,0.00,VWS V14.01,2013-02-07 20:49:00,
2013-02-07 12:54:00,44.8,6.2,29.86,SSE,149,18.3,18.3,20,0.00,,SKC,0.00,VWS V14.01,2013-02-07 20:54:00,
2013-02-07 12:59:00,44.6,6.0,29.86,SSE,154,21.0,21.0,20,0.00,,SKC,0.00,VWS V14.01,2013-02-07 20:59:00,
2013-02-07 13:04:00,45.3,6.6,29.86,SSE,157,14.1,19.7,20,0.00,,SKC,0.00,VWS V14.01,2013-02-07 21:04:00,
2013-02-07 13:09:00,45.3,6.6,29.86,SE,145,9.6,19.7,20,0.00,,SKC,0.00,VWS V14.01,2013-02-07 21:09:00,
2013-02-07 13:14:00,45.5,6.8,29.86,South,171,15.9,17.0,20,0.00,,SKC,0.00,VWS V14.01,2013-02-07 21:14:00,
2013-02-07 13:19:00,45.5,6.8,29.86,SE,139,21.9,21.9,20,0.00,,SKC,0.00,VWS V14.01,2013-02-07 21:19:00,
2013-02-07 13:24:00,45.1,6.5,29.86,South,178,16.3,17.0,20,0.00,,SKC,0.00,VWS V14.01,2013-02-07 21:24:00,
2013-02-07 13:29:00,45.0,6.3,29.86,SSE,168,19.2,19.7,20,0.00,,SKC,0.00,VWS V14.01,2013-02-07 21:29:00,
2013-02-07 13:34:00,45.7,6.9,29.86,South,169,19.2,19.2,20,0.00,,SKC,0.00,VWS V14.01,2013-02-07 21:34:00,
2013-02-07 13:39:00,45.5,6.8,29.86,SSE,165,16.8,19.7,20,0.00,,SKC,0.00,VWS V14.01,2013-02-07 21:39:00,
2013-02-07 13:44:00,45.0,6.3,29.86,SSE,152,18.8,21.9,20,0.00,,SKC,0.00,VWS V14.01,2013-02-07 21:44:00,
2013-02-07 13:49:00,44.8,6.2,29.86,SE,143,15.0,22.8,20,0.00,,SKC,0.00,VWS V14.01,2013-02-07 21:49:00,
2013-02-07 13:54:00,44.6,6.0,29.86,SE,135,10.5,21.5,20,0.00,,SKC,0.00,VWS V14.01,2013-02-07 21:54:00,
2013-02-07 13:59:00,44.2,5.7,29.86,South,182,20.1,21.5,20,0.00,,SKC,0.00,VWS V14.01,2013-02-07 21:59:00,
2013-02-07 14:04:00,43.0,4.7,29.86,SSE,150,19.2,23.3,20,0.00,,SKC,0.00,VWS V14.01,2013-02-07 22:04:00,
2013-02-07 14:09:00,43.7,5.3,29.86,South,177,15.0,16.8,20,0.00,,SKC,0.00,VWS V14.01,2013-02-07 22:09:00,
2013-02-07 14:14:00,43.0,7.7,29.86,SSW,192,15.4,23.3,23,0.00,,SKC,0.00,VWS V14.01,2013-02-07 22:14:00,
2013-02-07 14:19:00,42.8,7.6,29.86,SSW,196,12.3,18.8,23,0.00,,SKC,0.00,VWS V14.01,2013-02-07 22:19:00,
2013-02-07 14:24:00,42.4,7.3,29.86,SSW,193,17.4,19.2,23,0.00,,SKC,0.00,VWS V14.01,2013-02-07 22:24:00,
2013-02-07 14:29:00,42.8,7.6,29.86,SE,124,13.2,15.4,23,0.00,,SKC,0.00,VWS V14.01,2013-02-07 22:29:00,
2013-02-07 14:34:00,43.0,7.7,29.86,South,176,10.5,12.3,23,0.00,,SKC,0.00,VWS V14.01,2013-02-07 22:34:00,
2013-02-07 14:39:00,43.0,7.7,29.86,South,187,16.8,19.7,23,0.00,,SKC,0.00,VWS V14.01,2013-02-07 22:39:00,
2013-02-07 14:44:00,42.3,7.1,29.86,SSW,200,17.9,17.9,23,0.00,,SKC,0.00,VWS V14.01,2013-02-07 22:44:00,
2013-02-07 14:49:00,42.1,12.1,29.86,SSW,192,20.1,20.1,29,0.00,,SKC,0.00,VWS V14.01,2013-02-07 22:49:00,
2013-02-07 14:54:00,41.5,11.7,29.86,SE,135,17.4,17.4,29,0.00,,SKC,0.00,VWS V14.01,2013-02-07 22:54:00,
2013-02-07 14:59:00,41.7,11.0,29.86,South,186,17.0,17.0,28,0.00,,SKC,0.00,VWS V14.01,2013-02-07 22:59:00,
2013-02-07 15:04:00,41.7,11.0,29.86,South,175,17.0,21.9,28,0.00,,SKC,0.00,VWS V14.01,2013-02-07 23:04:00,
2013-02-07 15:09:00,41.5,10.9,29.86,SE,144,17.4,17.4,28,0.00,,SKC,0.00,VWS V14.01,2013-02-07 23:09:00,
2013-02-07 15:14:00,41.0,10.4,29.86,SSE,153,9.6,17.4,28,0.00,,SKC,0.00,VWS V14.01,2013-02-07 23:14:00,
2013-02-07 15:19:00,41.2,10.6,29.86,SE,137,13.2,23.7,28,0.00,,SKC,0.00,VWS V14.01,2013-02-07 23:19:00,
2013-02-07 15:24:00,41.7,11.0,29.86,SE,145,10.5,15.0,28,0.00,,SKC,0.00,VWS V14.01,2013-02-07 23:24:00,
2013-02-07 15:29:00,41.7,11.0,29.86,SSE,167,16.8,17.0,28,0.00,,SKC,0.00,VWS V14.01,2013-02-07 23:29:00,
2013-02-07 15:34:00,41.4,9.1,29.86,SSE,152,16.8,16.8,26,0.00,,SKC,0.00,VWS V14.01,2013-02-07 23:34:00,
2013-02-07 15:39:00,41.7,9.4,29.86,SSE,157,16.8,17.4,26,0.00,,SKC,0.00,VWS V14.01,2013-02-07 23:39:00,
2013-02-07 15:44:00,41.4,10.7,29.86,SSE,149,15.9,15.9,28,0.00,,SKC,0.00,VWS V14.01,2013-02-07 23:44:00,
2013-02-07 15:49:00,41.2,10.6,29.86,SSE,149,14.1,16.3,28,0.00,,SKC,0.00,VWS V14.01,2013-02-07 23:49:00,
2013-02-07 15:54:00,40.8,10.2,29.86,SSE,154,11.0,11.4,28,0.00,,SKC,0.00,VWS V14.01,2013-02-07 23:54:00,
2013-02-07 15:59:00,40.5,9.9,29.86,SSW,193,16.8,16.8,28,0.00,,SKC,0.00,VWS V14.01,2013-02-07 23:59:00,
2013-02-07 16:04:00,39.2,9.6,29.86,SSE,155,11.9,13.2,29,0.00,,SKC,0.00,VWS V14.01,2013-02-08 00:04:00,
2013-02-07 16:09:00,38.5,9.8,29.86,SSW,195,7.6,7.6,30,0.00,,SKC,0.00,VWS V14.01,2013-02-08 00:09:00,
2013-02-07 16:14:00,38.5,9.8,29.86,SSE,162,11.0,11.0,30,0.00,,SKC,0.00,VWS V14.01,2013-02-08 00:14:00,
2013-02-07 16:19:00,37.9,11.4,29.86,South,184,12.8,12.8,33,0.00,,SKC,0.00,VWS V14.01,2013-02-08 00:19:00,
2013-02-07 16:24:00,36.1,16.9,29.86,SSE,168,10.1,10.1,45,0.00,,SKC,0.00,VWS V14.01,2013-02-08 00:24:00,
2013-02-07 16:29:00,34.9,18.6,29.86,South,179,13.2,13.2,51,0.00,,SKC,0.00,VWS V14.01,2013-02-08 00:29:00,
2013-02-07 16:34:00,34.9,16.7,29.86,SSW,210,10.5,10.5,47,0.00,,SKC,0.00,VWS V14.01,2013-02-08 00:34:00,
2013-02-07 16:39:00,36.0,15.6,29.86,South,183,17.0,17.0,43,0.00,,SKC,0.00,VWS V14.01,2013-02-08 00:39:00,
2013-02-07 16:44:00,36.1,15.8,29.86,SE,131,12.3,15.9,43,0.00,,SKC,0.00,VWS V14.01,2013-02-08 00:44:00,
2013-02-07 16:49:00,35.1,20.1,29.86,SSE,158,12.8,12.8,54,0.00,,SKC,0.00,VWS V14.01,2013-02-08 00:49:00,
2013-02-07 16:54:00,34.5,21.3,29.83,SSE,156,17.0,17.0,58,0.00,,SKC,0.00,VWS V14.01,2013-02-08 00:54:00,
2013-02-07 16:59:00,34.2,20.5,29.83,South,171,8.3,8.3,57,0.00,,SKC,0.00,VWS V14.01,2013-02-08 00:59:00,
2013-02-07 17:04:00,34.2,20.5,29.89,SSE,149,8.7,8.7,57,0.00,,SKC,0.00,VWS V14.01,2013-02-08 01:04:00,
2013-02-07 17:09:00,34.9,19.1,29.89,South,187,12.8,12.8,52,0.00,,SKC,0.00,VWS V14.01,2013-02-08 01:09:00,
2013-02-07 17:14:00,35.1,19.2,29.89,South,173,15.4,15.4,52,0.00,,SKC,0.00,VWS V14.01,2013-02-08 01:14:00,
2013-02-07 17:19:00,34.5,21.3,29.89,SE,132,13.2,15.4,58,0.00,,SKC,0.00,VWS V14.01,2013-02-08 01:19:00,
2013-02-07 17:24:00,34.3,22.7,29.89,SSE,151,15.4,17.4,62,0.00,,SKC,0.00,VWS V14.01,2013-02-08 01:24:00,
2013-02-07 17:29:00,33.8,23.3,29.89,SE,128,12.8,15.9,65,0.00,,SKC,0.00,VWS V14.01,2013-02-08 01:29:00,
2013-02-07 17:34:00,33.3,23.5,29.89,SSE,165,11.0,14.5,67,0.00,,SKC,0.00,VWS V14.01,2013-02-08 01:34:00,
2013-02-07 17:39:00,33.3,21.7,29.89,SSE,149,10.5,11.0,62,0.00,,SKC,0.00,VWS V14.01,2013-02-08 01:39:00,
2013-02-07 17:44:00,33.4,18.6,29.89,SSE,149,8.7,8.7,54,0.00,,SKC,0.00,VWS V14.01,2013-02-08 01:44:00,
2013-02-07 17:49:00,33.6,17.9,29.89,SE,145,8.1,8.1,52,0.00,,SKC,0.00,VWS V14.01,2013-02-08 01:49:00,
2013-02-07 17:54:00,34.0,12.8,29.89,South,173,7.6,7.6,41,0.00,,SKC,0.00,VWS V14.01,2013-02-08 01:54:00,
2013-02-07 17:59:00,34.7,10.5,29.89,South,190,5.4,5.4,36,0.00,,SKC,0.00,VWS V14.01,2013-02-08 01:59:00,
2013-02-07 18:04:00,34.5,10.3,29.89,South,177,5.8,8.3,36,0.00,,SKC,0.00,VWS V14.01,2013-02-08 02:04:00,
2013-02-07 18:09:00,34.5,9.1,29.89,SSE,150,9.2,9.2,34,0.00,,SKC,0.00,VWS V14.01,2013-02-08 02:09:00,
2013-02-07 18:14:00,34.3,8.2,29.89,SE,129,8.3,8.3,33,0.00,,SKC,0.00,VWS V14.01,2013-02-08 02:14:00,
2013-02-07 18:19:00,34.5,7.7,29.89,South,174,10.5,10.5,32,0.00,,SKC,0.00,VWS V14.01,2013-02-08 02:19:00,
2013-02-07 18:24:00,34.7,7.9,29.89,SSE,166,7.6,7.6,32,0.00,,SKC,0.00,VWS V14.01,2013-02-08 02:24:00,
2013-02-07 18:29:00,34.0,7.9,29.89,SSW,196,4.0,4.0,33,0.00,,SKC,0.00,VWS V14.01,2013-02-08 02:29:00,
2013-02-07 18:34:00,33.8,7.1,29.92,SSE,155,8.1,8.1,32,0.00,,SKC,0.00,VWS V14.01,2013-02-08 02:34:00,
2013-02-07 18:39:00,34.3,6.9,29.92,SE,135,8.3,10.5,31,0.00,,SKC,0.00,VWS V14.01,2013-02-08 02:39:00,
2013-02-07 18:44:00,34.5,7.0,29.92,SE,143,11.0,11.0,31,0.00,,SKC,0.00,VWS V14.01,2013-02-08 02:44:00,
2013-02-07 18:49:00,34.5,7.0,29.92,SSE,166,8.7,10.5,31,0.00,,SKC,0.00,VWS V14.01,2013-02-08 02:49:00,
2013-02-07 18:54:00,34.5,7.0,29.89,SE,144,4.0,8.1,31,0.00,,SKC,0.00,VWS V14.01,2013-02-08 02:54:00,
2013-02-07 18:59:00,34.5,7.0,29.89,South,174,6.3,8.1,31,0.00,,SKC,0.00,VWS V14.01,2013-02-08 02:59:00,
2013-02-07 19:04:00,34.3,6.9,29.89,SSE,152,10.1,10.1,31,0.00,,SKC,0.00,VWS V14.01,2013-02-08 03:04:00,
2013-02-07 19:09:00,33.4,6.8,29.89,SSE,148,4.0,5.8,32,0.00,,SKC,0.00,VWS V14.01,2013-02-08 03:09:00,
2013-02-07 19:14:00,34.3,6.1,29.89,SSW,200,7.6,8.3,30,0.00,,SKC,0.00,VWS V14.01,2013-02-08 03:14:00,
2013-02-07 19:19:00,34.2,6.0,29.89,SSW,195,7.2,10.1,30,0.00,,SKC,0.00,VWS V14.01,2013-02-08 03:19:00,
2013-02-07 19:24:00,33.6,6.2,29.89,SSE,157,5.4,6.3,31,0.00,,SKC,0.00,VWS V14.01,2013-02-08 03:24:00,
2013-02-07 19:29:00,33.6,6.2,29.89,SSE,154,6.3,6.3,31,0.00,,SKC,0.00,VWS V14.01,2013-02-08 03:29:00,
2013-02-07 19:34:00,33.4,6.1,29.89,South,181,2.7,5.8,31,0.00,,SKC,0.00,VWS V14.01,2013-02-08 03:34:00,
2013-02-07 19:39:00,33.1,5.8,29.89,SSE,147,5.4,5.8,31,0.00,,SKC,0.00,VWS V14.01,2013-02-08 03:39:00,
2013-02-07 19:44:00,32.0,4.8,29.89,North,0,4.5,4.5,31,0.00,,SKC,0.00,VWS V14.01,2013-02-08 03:44:00,
2013-02-07 19:49:00,30.9,4.5,29.89,NE,41,5.8,8.3,32,0.00,,SKC,0.00,VWS V14.01,2013-02-08 03:49:00,
2013-02-07 19:54:00,30.6,4.9,29.86,East,88,4.0,6.3,33,0.00,,SKC,0.00,VWS V14.01,2013-02-08 03:54:00,
2013-02-07 19:59:00,30.2,5.2,29.86,NNE,21,3.6,3.6,34,0.00,,SKC,0.00,VWS V14.01,2013-02-08 03:59:00,
2013-02-07 20:04:00,30.0,5.7,29.86,East,85,2.7,2.7,35,0.00,,SKC,0.00,VWS V14.01,2013-02-08 04:04:00,
2013-02-07 20:09:00,30.0,5.7,29.86,ESE,109,2.7,3.1,35,0.00,,SKC,0.00,VWS V14.01,2013-02-08 04:09:00,
2013-02-07 20:14:00,29.7,5.4,29.86,ENE,64,2.2,2.7,35,0.00,,SKC,0.00,VWS V14.01,2013-02-08 04:14:00,
2013-02-07 20:19:00,29.5,5.2,29.86,SE,132,4.9,5.8,35,0.00,,SKC,0.00,VWS V14.01,2013-02-08 04:19:00,
2013-02-07 20:24:00,29.7,4.7,29.89,SE,127,3.1,5.8,34,0.00,,SKC,0.00,VWS V14.01,2013-02-08 04:24:00,
2013-02-07 20:29:00,29.5,4.6,29.89,SE,124,5.8,5.8,34,0.00,,SKC,0.00,VWS V14.01,2013-02-08 04:29:00,
2013-02-07 20:34:00,30.2,4.6,29.89,ESE,120,7.6,7.6,33,0.00,,SKC,0.00,VWS V14.01,2013-02-08 04:34:00,
2013-02-07 20:39:00,30.7,4.4,29.89,SE,133,8.3,8.3,32,0.00,,SKC,0.00,VWS V14.01,2013-02-08 04:39:00,
2013-02-07 20:44:00,30.9,4.5,29.89,ESE,108,8.3,8.3,32,0.00,,SKC,0.00,VWS V14.01,2013-02-08 04:44:00,
2013-02-07 20:49:00,31.5,4.3,29.89,East,97,7.6,7.6,31,0.00,,SKC,0.00,VWS V14.01,2013-02-08 04:49:00,
2013-02-07 20:54:00,31.5,4.3,29.89,SSE,147,3.1,5.8,31,0.00,,SKC,0.00,VWS V14.01,2013-02-08 04:54:00,
2013-02-07 20:59:00,31.6,4.5,29.89,SE,129,5.8,6.7,31,0.00,,SKC,0.00,VWS V14.01,2013-02-08 04:59:00,
2013-02-07 21:00:00,31.6,4.5,29.89,SE,139,6.3,7.6,31,0.00,,SKC,0.00,VWS V14.01,2013-02-08 05:00:00,
2013-02-07 21:01:00,31.6,4.5,29.89,SE,130,5.8,7.6,31,0.00,,SKC,0.00,VWS V14.01,2013-02-08 05:01:00,
2013-02-07 21:06:00,31.6,3.8,29.89,SE,130,5.8,7.6,30,0.00,,SKC,0.00,VWS V14.01,2013-02-08 05:06:00,
2013-02-07 21:11:00,31.5,3.6,29.89,SE,143,6.3,6.3,30,0.00,,SKC,0.00,VWS V14.01,2013-02-08 05:11:00,
2013-02-07 21:16:00,31.6,3.8,29.89,SSE,166,6.3,7.2,30,0.00,,SKC,0.00,VWS V14.01,2013-02-08 05:16:00,
2013-02-07 21:20:00,31.8,3.9,29.89,SSE,162,8.7,8.7,30,0.00,,SKC,0.00,VWS V14.01,2013-02-08 05:20:00,
2013-02-07 21:25:00,31.1,3.3,29.89,SE,138,5.4,6.3,30,0.00,,SKC,0.00,VWS V14.01,2013-02-08 05:25:00,
2013-02-07 21:30:00,30.9,1.7,29.89,SE,143,4.0,7.6,28,0.00,,SKC,0.00,VWS V14.01,2013-02-08 05:30:00,
2013-02-07 21:35:00,30.7,3.0,29.89,SE,125,8.1,8.1,30,0.00,,SKC,0.00,VWS V14.01,2013-02-08 05:35:00,
2013-02-07 21:40:00,30.6,2.8,29.89,SSE,160,2.7,3.1,30,0.00,,SKC,0.00,VWS V14.01,2013-02-08 05:40:00,
2013-02-07 21:45:00,30.0,2.3,29.89,SE,127,5.8,5.8,30,0.00,,SKC,0.00,VWS V14.01,2013-02-08 05:45:00,
2013-02-07 21:50:00,30.0,2.3,29.89,SSE,156,5.4,5.4,30,0.00,,SKC,0.00,VWS V14.01,2013-02-08 05:50:00,
2013-02-07 21:55:00,30.0,2.3,29.89,SSE,154,0.0,4.0,30,0.00,,SKC,0.00,VWS V14.01,2013-02-08 05:55:00,
2013-02-07 22:00:00,29.5,2.6,29.89,SSE,151,3.1,4.9,31,0.00,,SKC,0.00,VWS V14.01,2013-02-08 06:00:00,
2013-02-07 22:05:00,29.5,2.6,29.89,South,177,5.8,9.6,31,0.00,,SKC,0.00,VWS V14.01,2013-02-08 06:05:00,
2013-02-07 22:10:00,29.5,2.6,29.89,SE,142,7.6,7.6,31,0.00,,SKC,0.00,VWS V14.01,2013-02-08 06:10:00,
2013-02-07 22:15:00,29.3,2.4,29.89,SSE,156,8.3,8.3,31,0.00,,SKC,0.00,VWS V14.01,2013-02-08 06:15:00,
2013-02-07 22:20:00,29.3,3.1,29.86,SSE,166,3.1,3.1,32,0.00,,SKC,0.00,VWS V14.01,2013-02-08 06:20:00,
2013-02-07 22:25:00,28.6,2.5,29.86,South,173,0.0,0.0,32,0.00,,SKC,0.00,VWS V14.01,2013-02-08 06:25:00,
2013-02-07 22:30:00,27.9,2.5,29.86,NNE,23,0.0,0.0,33,0.00,,SKC,0.00,VWS V14.01,2013-02-08 06:30:00,
2013-02-07 22:35:00,27.3,2.0,29.89,NNE,15,0.0,0.0,33,0.00,,SKC,0.00,VWS V14.01,2013-02-08 06:35:00,
2013-02-07 22:40:00,27.0,2.3,29.89,NE,51,5.4,7.2,34,0.00,,SKC,0.00,VWS V14.01,2013-02-08 06:40:00,
2013-02-07 22:45:00,27.0,2.3,29.89,NNE,32,7.6,7.6,34,0.00,,SKC,0.00,VWS V14.01,2013-02-08 06:45:00,
2013-02-07 22:50:00,27.3,2.7,29.89,ENE,63,5.8,8.3,34,0.00,,SKC,0.00,VWS V14.01,2013-02-08 06:50:00,
2013-02-07 22:55:00,27.7,3.0,29.89,NNE,33,4.9,6.3,34,0.00,,SKC,0.00,VWS V14.01,2013-02-08 06:55:00,
2013-02-07 23:00:00,27.3,2.7,29.89,NE,36,3.1,4.0,34,0.00,,SKC,0.00,VWS V14.01,2013-02-08 07:00:00,
2013-02-07 23:05:00,26.6,2.7,29.89,NE,36,0.0,0.0,35,0.00,,SKC,0.00,VWS V14.01,2013-02-08 07:05:00,
2013-02-07 23:10:00,26.1,2.8,29.89,NE,36,0.0,0.0,36,0.00,,SKC,0.00,VWS V14.01,2013-02-08 07:10:00,
2013-02-07 23:15:00,25.9,2.6,29.89,NE,36,0.0,0.0,36,0.00,,SKC,0.00,VWS V14.01,2013-02-08 07:15:00,
2013-02-07 23:20:00,25.7,3.0,29.86,SW,235,0.0,3.6,37,0.00,,SKC,0.00,VWS V14.01,2013-02-08 07:20:00,
2013-02-07 23:25:00,25.3,3.3,29.86,SSW,213,0.0,0.0,38,0.00,,SKC,0.00,VWS V14.01,2013-02-08 07:25:00,
2013-02-07 23:30:00,25.3,3.9,29.86,SW,220,0.0,0.0,39,0.00,,SKC,0.00,VWS V14.01,2013-02-08 07:30:00,
2013-02-07 23:35:00,25.2,3.1,29.86,SW,221,0.0,0.0,38,0.00,,SKC,0.00,VWS V14.01,2013-02-08 07:35:00,
2013-02-07 23:40:00,24.6,2.7,29.86,SW,220,0.0,0.0,38,0.00,,SKC,0.00,VWS V14.01,2013-02-08 07:40:00,
2013-02-07 23:45:00,24.3,2.9,29.86,SW,220,0.0,0.0,39,0.00,,SKC,0.00,VWS V14.01,2013-02-08 07:45:00,
2013-02-07 23:50:00,23.7,3.5,29.86,SW,230,0.0,0.0,41,0.00,,SKC,0.00,VWS V14.01,2013-02-08 07:50:00,
2013-02-07 23:55:00,23.4,3.7,29.86,SW,230,0.0,0.0,42,0.00,,SKC,0.00,VWS V14.01,2013-02-08 07:55:00,